createdAt,value
2023-03-26T00:01:41.618Z,96185.25
2023-03-26T00:04:09.298Z,96186.28
2023-03-26T00:06:39.982Z,96189.97
2023-03-26T00:09:09.331Z,96187.81
2023-03-26T00:11:36.890Z,96185.00
2023-03-26T00:14:05.384Z,96177.41
2023-03-26T00:16:35.288Z,96172.94
2023-03-26T00:19:04.058Z,96167.34
2023-03-26T00:21:32.486Z,96162.13
2023-03-26T00:24:04.385Z,96167.34
2023-03-26T00:26:33.542Z,96160.53
2023-03-26T00:29:03.377Z,96167.09
2023-03-26T00:31:31.734Z,96159.41
2023-03-26T00:34:03.502Z,96161.19
2023-03-26T00:36:31.089Z,96166.94
2023-03-26T00:38:58.691Z,96163.56
2023-03-26T00:41:30.980Z,96155.53
2023-03-26T00:44:00.192Z,96158.97
2023-03-26T00:46:29.270Z,96158.78
2023-03-26T00:48:58.799Z,96165.41
2023-03-26T00:51:29.567Z,96158.22
2023-03-26T00:53:58.132Z,96168.91
2023-03-26T00:56:26.136Z,96162.88
2023-03-26T00:58:53.685Z,96173.47
2023-03-26T01:01:27.724Z,96168.06
2023-03-26T01:04:08.364Z,96164.66
2023-03-26T01:06:42.048Z,96163.69
2023-03-26T01:09:15.821Z,96159.63
2023-03-26T01:11:43.804Z,96147.63
2023-03-26T01:14:13.926Z,96142.44
2023-03-26T01:16:44.900Z,96142.03
2023-03-26T01:19:21.149Z,96138.09
2023-03-26T01:21:50.042Z,96132.47
2023-03-26T01:24:18.904Z,96130.03
2023-03-26T01:26:59.344Z,96128.22
2023-03-26T01:29:33.417Z,96124.84
2023-03-26T01:32:09.712Z,96119.63
2023-03-26T01:34:49.685Z,96119.25
2023-03-26T01:37:24.707Z,96106.84
2023-03-26T01:39:58.274Z,96108.66
2023-03-26T01:42:38.126Z,96105.59
2023-03-26T01:45:11.904Z,96104.81
2023-03-26T01:47:41.876Z,96100.34
2023-03-26T01:50:10.519Z,96102.75
2023-03-26T01:52:38.207Z,96096.59
2023-03-26T01:55:11.757Z,96097.31
2023-03-26T01:57:53.468Z,96089.88
2023-03-26T02:00:28.566Z,96087.09
2023-03-26T02:03:05.882Z,96075.50
2023-03-26T02:05:37.506Z,96079.34
2023-03-26T02:08:12.519Z,96071.53
2023-03-26T02:10:44.175Z,96071.28
2023-03-26T02:13:12.438Z,96065.66
2023-03-26T02:15:40.929Z,96062.88
2023-03-26T02:18:10.858Z,96059.09
2023-03-26T02:20:38.459Z,96043.28
2023-03-26T02:23:06.730Z,96045.69
2023-03-26T02:25:35.774Z,96041.50
2023-03-26T02:28:05.859Z,96044.66
2023-03-26T02:30:33.672Z,96048.78
2023-03-26T02:33:01.236Z,96042.28
2023-03-26T02:35:28.835Z,96041.41
2023-03-26T02:37:56.774Z,96036.38
2023-03-26T02:40:24.995Z,96037.94
2023-03-26T02:42:52.474Z,96034.09
2023-03-26T02:45:21.329Z,96030.09
2023-03-26T02:47:51.028Z,96019.84
2023-03-26T02:50:19.266Z,96025.16
2023-03-26T02:52:49.030Z,96009.31
2023-03-26T02:55:16.586Z,96013.91
2023-03-26T02:57:44.158Z,96009.06
2023-03-26T03:00:17.329Z,96016.44
2023-03-26T03:02:48.091Z,96009.53
2023-03-26T03:05:15.990Z,96005.41
2023-03-26T03:07:43.499Z,96003.81
2023-03-26T03:10:13.755Z,96007.03
2023-03-26T03:12:41.651Z,96000.56
2023-03-26T03:15:10.714Z,95990.47
2023-03-26T03:17:38.317Z,95988.84
2023-03-26T03:20:09.345Z,95989.19
2023-03-26T03:22:37.188Z,95993.53
2023-03-26T03:25:05.596Z,95993.28
2023-03-26T03:27:33.078Z,95982.59
2023-03-26T03:30:00.606Z,95969.81
2023-03-26T03:32:28.565Z,95974.56
2023-03-26T03:34:56.426Z,95978.50
2023-03-26T03:37:26.284Z,95979.56
2023-03-26T03:39:53.914Z,95975.56
2023-03-26T03:42:21.487Z,95980.28
2023-03-26T03:44:48.966Z,95978.78
2023-03-26T03:47:16.518Z,95976.44
2023-03-26T03:49:43.998Z,95970.63
2023-03-26T03:52:11.479Z,95974.81
2023-03-26T03:54:40.334Z,95969.81
2023-03-26T03:57:07.889Z,95967.66
2023-03-26T03:59:35.414Z,95965.34
2023-03-26T04:02:03.220Z,95962.19
2023-03-26T04:04:30.758Z,95950.84
2023-03-26T04:06:58.312Z,95945.66
2023-03-26T04:09:25.875Z,95946.03
2023-03-26T04:11:54.736Z,95944.75
2023-03-26T04:14:22.240Z,95950.13
2023-03-26T04:16:50.006Z,95943.78
2023-03-26T04:19:17.512Z,95939.56
2023-03-26T04:21:45.731Z,95936.16
2023-03-26T04:24:13.586Z,95926.75
2023-03-26T04:26:41.559Z,95920.16
2023-03-26T04:29:16.896Z,95918.09
2023-03-26T04:31:44.963Z,95914.41
2023-03-26T04:34:24.013Z,95912.34
2023-03-26T04:36:54.352Z,95902.16
2023-03-26T04:39:22.806Z,95908.59
2023-03-26T04:41:50.416Z,95902.88
2023-03-26T04:44:22.384Z,95897.75
2023-03-26T04:46:50.068Z,95887.84
2023-03-26T04:49:17.632Z,95885.78
2023-03-26T04:51:46.725Z,95880.59
2023-03-26T04:54:16.110Z,95878.78
2023-03-26T04:56:48.113Z,95866.34
2023-03-26T04:59:20.370Z,95850.34
2023-03-26T05:01:47.902Z,95841.66
2023-03-26T05:04:15.493Z,95836.41
2023-03-26T05:06:43.414Z,95841.13
2023-03-26T05:09:11.141Z,95837.19
2023-03-26T05:11:38.714Z,95830.50
2023-03-26T05:14:06.275Z,95837.47
2023-03-26T05:16:35.915Z,95835.22
2023-03-26T05:19:03.505Z,95818.06
2023-03-26T05:21:31.026Z,95811.25
2023-03-26T05:23:58.631Z,95809.19
2023-03-26T05:26:26.337Z,95808.75
2023-03-26T05:28:53.917Z,95818.22
2023-03-26T05:31:22.234Z,95811.16
2023-03-26T05:33:51.780Z,95821.78
2023-03-26T05:36:19.390Z,95828.59
2023-03-26T05:38:49.439Z,95821.78
2023-03-26T05:41:18.120Z,95822.78
2023-03-26T05:43:47.166Z,95817.78
2023-03-26T05:46:15.388Z,95819.41
2023-03-26T05:48:42.931Z,95812.41
2023-03-26T05:51:12.350Z,95813.38
2023-03-26T05:53:39.928Z,95817.34
2023-03-26T05:56:08.206Z,95812.41
2023-03-26T05:58:36.861Z,95798.03
2023-03-26T06:01:08.491Z,95786.41
2023-03-26T06:03:38.291Z,95789.00
2023-03-26T06:06:09.213Z,95796.06
2023-03-26T06:08:39.229Z,95781.22
2023-03-26T06:11:08.337Z,95785.94
2023-03-26T06:13:36.069Z,95779.25
2023-03-26T06:16:03.739Z,95776.94
2023-03-26T06:18:31.430Z,95782.22
2023-03-26T06:21:00.039Z,95783.28
2023-03-26T06:23:27.574Z,95777.41
2023-03-26T06:25:57.111Z,95773.72
2023-03-26T06:28:24.707Z,95767.81
2023-03-26T06:30:52.838Z,95770.28
2023-03-26T06:33:22.184Z,95761.00
2023-03-26T06:35:51.768Z,95752.66
2023-03-26T06:38:19.307Z,95745.75
2023-03-26T06:40:46.848Z,95737.63
2023-03-26T06:43:15.774Z,95738.59
2023-03-26T06:45:43.294Z,95733.41
2023-03-26T06:48:10.804Z,95730.47
2023-03-26T06:50:38.328Z,95733.13
2023-03-26T06:53:06.093Z,95734.00
2023-03-26T06:55:33.636Z,95731.28
2023-03-26T06:58:01.209Z,95738.75
2023-03-26T07:00:30.532Z,95734.81
2023-03-26T07:02:58.495Z,95723.81
2023-03-26T07:05:26.530Z,95728.66
2023-03-26T07:07:54.085Z,95721.91
2023-03-26T07:10:25.058Z,95708.97
2023-03-26T07:12:54.460Z,95712.81
2023-03-26T07:15:22.701Z,95707.22
2023-03-26T07:17:52.394Z,95703.09
2023-03-26T07:20:20.863Z,95695.13
2023-03-26T07:22:49.660Z,95684.84
2023-03-26T07:25:19.414Z,95676.78
2023-03-26T07:27:57.326Z,95690.44
2023-03-26T07:30:32.056Z,95689.16
2023-03-26T07:33:04.992Z,95682.88
2023-03-26T07:35:40.409Z,95667.69
2023-03-26T07:38:25.760Z,95667.09
2023-03-26T07:41:03.876Z,95656.09
2023-03-26T07:43:53.137Z,95656.47
2023-03-26T07:46:26.190Z,95652.38
2023-03-26T07:48:58.493Z,95630.75
2023-03-26T07:51:27.023Z,95625.31
2023-03-26T07:53:55.776Z,95617.88
2023-03-26T07:56:32.448Z,95607.16
2023-03-26T07:59:13.290Z,95605.81
2023-03-26T08:01:57.073Z,95595.28
2023-03-26T08:04:57.554Z,95597.38
2023-03-26T08:07:40.230Z,95590.25
2023-03-26T08:10:16.891Z,95585.13
2023-03-26T08:12:53.800Z,95585.38
2023-03-26T08:15:29.500Z,95586.22
2023-03-26T08:18:06.239Z,95578.66
2023-03-26T08:20:43.693Z,95584.09
2023-03-26T08:23:19.537Z,95580.75
2023-03-26T08:25:54.960Z,95583.56
2023-03-26T08:28:38.178Z,95575.78
2023-03-26T08:31:06.773Z,95579.97
2023-03-26T08:33:38.361Z,95586.41
2023-03-26T08:36:09.055Z,95583.44
2023-03-26T08:38:36.872Z,95587.25
2023-03-26T08:41:39.631Z,95581.09
2023-03-26T08:44:27.224Z,95578.31
2023-03-26T08:47:32.760Z,95566.69
2023-03-26T08:50:44.485Z,95572.06
2023-03-26T08:53:40.702Z,95576.66
2023-03-26T08:56:13.161Z,95570.88
2023-03-26T08:59:01.328Z,95577.13
2023-03-26T09:01:50.022Z,95571.34
2023-03-26T09:04:47.464Z,95561.16
2023-03-26T09:07:44.253Z,95559.19
2023-03-26T09:10:53.245Z,95540.78
2023-03-26T09:14:02.988Z,95536.59
2023-03-26T09:17:08.213Z,95540.78
2023-03-26T09:20:13.657Z,95549.56
2023-03-26T09:23:08.800Z,95531.31
2023-03-26T09:26:04.698Z,95521.50
2023-03-26T09:29:13.520Z,95521.47
2023-03-26T09:32:12.804Z,95517.91
2023-03-26T09:34:56.537Z,95512.09
2023-03-26T09:37:29.699Z,95509.09
2023-03-26T09:40:10.668Z,95505.88
2023-03-26T09:42:45.732Z,95510.72
2023-03-26T09:45:38.028Z,95495.75
2023-03-26T09:48:30.763Z,95505.13
2023-03-26T09:51:15.127Z,95492.75
2023-03-26T09:54:20.031Z,95501.16
2023-03-26T09:56:57.737Z,95502.38
2023-03-26T09:59:50.651Z,95505.19
2023-03-26T10:02:47.597Z,95504.81
2023-03-26T10:05:31.414Z,95490.63
2023-03-26T10:08:25.651Z,95472.47
2023-03-26T10:10:58.545Z,95472.31
2023-03-26T10:13:33.582Z,95478.72
2023-03-26T10:16:13.082Z,95474.94
2023-03-26T10:18:52.476Z,95476.94
2023-03-26T10:21:35.591Z,95474.56
2023-03-26T10:24:25.396Z,95476.56
2023-03-26T10:27:09.731Z,95474.38
2023-03-26T10:30:19.419Z,95462.59
2023-03-26T10:32:59.015Z,95462.19
2023-03-26T10:35:42.677Z,95472.41
2023-03-26T10:38:19.462Z,95469.63
2023-03-26T10:40:59.469Z,95472.22
2023-03-26T10:44:19.793Z,95461.78
2023-03-26T10:47:12.825Z,95468.97
2023-03-26T10:50:02.013Z,95459.75
2023-03-26T10:52:56.350Z,95469.34
2023-03-26T10:55:32.248Z,95468.53
2023-03-26T10:58:05.697Z,95467.72
2023-03-26T11:00:40.728Z,95462.69
2023-03-26T11:03:33.391Z,95463.88
2023-03-26T11:06:15.681Z,95469.25
2023-03-26T11:08:50.096Z,95470.03
2023-03-26T11:11:32.224Z,95450.72
2023-03-26T11:14:07.107Z,95449.28
2023-03-26T11:19:22.932Z,95450.94
2023-03-26T11:21:59.080Z,95445.38
2023-03-26T11:24:56.231Z,95440.94
2023-03-26T11:27:36.664Z,95452.56
2023-03-26T11:30:15.869Z,95447.13
2023-03-26T11:32:48.844Z,95450.06
2023-03-26T11:35:39.818Z,95435.78
2023-03-26T11:38:16.980Z,95434.31
2023-03-26T11:40:50.783Z,95434.09
2023-03-26T11:43:25.964Z,95443.31
2023-03-26T11:45:53.993Z,95429.81
2023-03-26T11:48:27.659Z,95421.44
2023-03-26T11:51:01.550Z,95424.78
2023-03-26T11:53:34.520Z,95428.19
2023-03-26T11:56:06.228Z,95411.66
2023-03-26T11:58:42.041Z,95412.41
2023-03-26T12:01:15.917Z,95413.28
2023-03-26T12:03:44.368Z,95402.25
2023-03-26T12:06:25.682Z,95406.88
2023-03-26T12:08:54.965Z,95405.13
2023-03-26T12:11:28.284Z,95408.97
2023-03-26T12:14:02.208Z,95403.53
2023-03-26T12:16:30.056Z,95408.47
2023-03-26T12:19:04.019Z,95391.50
2023-03-26T12:31:19.518Z,95378.63
2023-03-26T12:34:10.584Z,95384.25
2023-03-26T12:36:39.124Z,95371.84
2023-03-26T12:40:09.418Z,95385.63
2023-03-26T12:44:48.102Z,95372.66
2023-03-26T12:47:55.252Z,95374.25
2023-03-26T12:49:32.460Z,95370.50
2023-03-26T12:52:15.230Z,95364.25
2023-03-26T12:54:54.512Z,95357.84
2023-03-26T12:57:24.248Z,95360.25
2023-03-26T13:00:06.625Z,95354.78
2023-03-26T13:03:14.398Z,95367.88
2023-03-26T13:06:02.929Z,95362.44
2023-03-26T13:09:05.268Z,95361.16
2023-03-26T13:11:43.586Z,95362.66
2023-03-26T13:14:25.543Z,95373.44
2023-03-26T13:16:56.909Z,95397.78
2023-03-26T13:19:50.346Z,95415.59
2023-03-26T13:30:24.178Z,95409.78
2023-03-26T13:33:09.099Z,95394.75
2023-03-26T13:35:47.830Z,95388.50
2023-03-26T13:38:24.999Z,95378.19
2023-03-26T13:41:03.132Z,95370.84
2023-03-26T13:43:45.628Z,95376.81
2023-03-26T13:46:24.251Z,95360.13
2023-03-26T13:48:55.175Z,95352.28
2023-03-26T13:51:28.173Z,95341.97
2023-03-26T13:54:03.192Z,95340.53
2023-03-26T13:56:37.754Z,95333.25
2023-03-26T13:59:13.830Z,95329.66
2023-03-26T14:01:48.705Z,95324.44
2023-03-26T14:04:24.401Z,95326.47
2023-03-26T14:06:58.433Z,95316.59
2023-03-26T14:09:31.684Z,95313.88
2023-03-26T14:12:21.281Z,95314.56
2023-03-26T14:14:53.622Z,95305.50
2023-03-26T14:17:26.550Z,95304.47
2023-03-26T14:20:33.646Z,95304.16
2023-03-26T14:23:26.686Z,95303.72
2023-03-26T14:26:07.984Z,95304.28
2023-03-26T14:29:09.714Z,95294.41
2023-03-26T14:31:44.135Z,95295.78
2023-03-26T14:34:28.934Z,95285.44
2023-03-26T14:37:28.316Z,95272.50
2023-03-26T14:40:27.445Z,95270.56
2023-03-26T14:43:05.601Z,95273.16
2023-03-26T14:45:53.487Z,95264.19
2023-03-26T14:48:59.214Z,95275.34
2023-03-26T14:51:40.822Z,95275.69
2023-03-26T14:54:12.299Z,95269.56
2023-03-26T14:57:08.688Z,95261.81
2023-03-26T15:00:15.743Z,95260.91
2023-03-26T15:03:34.539Z,95265.09
2023-03-26T15:06:30.376Z,95260.44
2023-03-26T15:09:36.204Z,95261.00
2023-03-26T15:12:15.428Z,95262.81
2023-03-26T15:15:10.439Z,95257.22
2023-03-26T15:18:08.362Z,95262.38
2023-03-26T15:21:08.319Z,95268.72
2023-03-26T15:23:58.774Z,95265.34
2023-03-26T15:27:10.104Z,95272.28
2023-03-26T15:30:11.478Z,95273.16
2023-03-26T15:33:06.421Z,95273.06
2023-03-26T15:35:57.725Z,95283.31
2023-03-26T15:39:14.731Z,95288.97
2023-03-26T15:41:47.606Z,95290.13
2023-03-26T15:44:43.829Z,95293.97
2023-03-26T15:48:01.062Z,95314.19
2023-03-26T15:50:41.155Z,95351.34
2023-03-26T15:53:30.920Z,95376.94
2023-03-26T15:56:14.961Z,95373.34
2023-03-26T15:58:50.377Z,95377.84
2023-03-26T16:01:33.799Z,95367.53
2023-03-26T16:04:14.773Z,95380.81
2023-03-26T16:06:54.962Z,95379.22
2023-03-26T16:09:51.689Z,95377.75
2023-03-26T16:12:32.615Z,95381.56
2023-03-26T16:15:32.150Z,95371.13
2023-03-26T16:18:30.711Z,95377.78
2023-03-26T16:21:31.132Z,95384.81
2023-03-26T16:24:20.427Z,95387.59
2023-03-26T16:27:00.789Z,95381.56
2023-03-26T16:29:30.513Z,95391.59
2023-03-26T16:32:15.694Z,95385.94
2023-03-26T16:34:50.562Z,95381.31
2023-03-26T16:37:39.784Z,95382.91
2023-03-26T16:40:33.219Z,95378.53
2023-03-26T16:43:15.995Z,95370.34
2023-03-26T16:45:51.502Z,95370.34
2023-03-26T16:48:27.223Z,95371.13
2023-03-26T16:50:59.869Z,95367.94
2023-03-26T16:53:41.636Z,95371.41
2023-03-26T16:56:17.853Z,95367.19
2023-03-26T16:58:55.010Z,95380.44
2023-03-26T17:01:34.224Z,95377.88
2023-03-26T17:04:07.184Z,95383.56
2023-03-26T17:06:56.567Z,95378.19
2023-03-26T17:09:31.599Z,95385.84
2023-03-26T17:12:08.631Z,95388.47
2023-03-26T17:14:52.000Z,95399.97
2023-03-26T17:17:36.707Z,95389.56
2023-03-26T17:20:16.319Z,95407.22
2023-03-26T17:22:47.470Z,95399.19
2023-03-26T17:25:26.613Z,95401.22
2023-03-26T17:32:43.185Z,95416.06
2023-03-26T17:58:01.408Z,95423.38
2023-03-26T18:03:09.344Z,95431.22
2023-03-26T18:05:40.455Z,95445.19
2023-03-26T18:08:29.164Z,95440.97
2023-03-26T18:11:37.900Z,95446.97
2023-03-26T18:14:36.058Z,95444.91
2023-03-26T18:17:04.251Z,95448.72
2023-03-26T18:19:47.272Z,95446.94
2023-03-26T18:22:18.736Z,95442.31
2023-03-26T18:24:47.480Z,95436.75
2023-03-26T18:27:17.721Z,95449.53
2023-03-26T18:29:46.962Z,95452.94
2023-03-26T18:32:22.480Z,95450.72
2023-03-26T18:34:54.223Z,95446.97
2023-03-26T18:37:27.740Z,95450.53
2023-03-26T18:40:02.090Z,95452.53
2023-03-26T18:42:32.707Z,95445.31
2023-03-26T18:45:05.231Z,95446.88
2023-03-26T18:47:33.040Z,95453.88
2023-03-26T18:50:01.137Z,95443.69
2023-03-26T18:52:33.023Z,95455.66
2023-03-26T18:55:02.884Z,95451.03
2023-03-26T18:57:31.243Z,95452.44
2023-03-26T19:00:15.607Z,95448.25
2023-03-26T19:02:43.802Z,95445.66
2023-03-26T19:05:16.541Z,95446.44
2023-03-26T19:07:47.140Z,95447.66
2023-03-26T19:10:21.964Z,95452.44
2023-03-26T19:12:57.256Z,95451.88
2023-03-26T19:15:26.496Z,95454.09
2023-03-26T19:17:59.724Z,95437.66
2023-03-26T19:20:30.516Z,95441.28
2023-03-26T19:22:59.834Z,95446.84
2023-03-26T19:25:32.355Z,95438.44
2023-03-26T19:28:00.150Z,95431.06
2023-03-26T19:30:32.387Z,95427.28
2023-03-26T19:33:12.877Z,95428.91
2023-03-26T19:35:42.990Z,95424.06
2023-03-26T19:38:21.966Z,95425.28
2023-03-26T19:40:50.852Z,95415.47
2023-03-26T19:43:18.863Z,95422.88
2023-03-26T19:46:00.250Z,95414.88
2023-03-26T19:48:45.745Z,95411.31
2023-03-26T19:51:20.307Z,95410.94
2023-03-26T19:53:55.025Z,95412.56
2023-03-26T19:56:22.898Z,95413.16
2023-03-26T19:58:50.962Z,95408.75
2023-03-26T20:01:20.844Z,95413.69
2023-03-26T20:03:50.641Z,95416.50
2023-03-26T20:06:22.131Z,95411.31
2023-03-26T20:08:54.972Z,95406.09
2023-03-26T20:11:24.704Z,95418.28
2023-03-26T20:13:52.665Z,95406.91
2023-03-26T20:16:25.078Z,95411.09
2023-03-26T20:18:52.684Z,95413.66
2023-03-26T20:21:20.380Z,95413.28
2023-03-26T20:23:47.969Z,95420.06
2023-03-26T20:26:18.541Z,95421.69
2023-03-26T20:28:48.255Z,95424.47
2023-03-26T20:31:19.246Z,95422.09
2023-03-26T20:33:47.950Z,95419.72
2023-03-26T20:36:33.242Z,95423.28
2023-03-26T20:39:05.405Z,95423.75
2023-03-26T20:41:35.318Z,95429.91
2023-03-26T20:44:04.945Z,95426.91
2023-03-26T20:46:33.115Z,95429.50
2023-03-26T20:49:00.758Z,95431.72
2023-03-26T20:51:29.193Z,95428.75
2023-03-26T20:53:57.404Z,95429.31
2023-03-26T20:56:25.285Z,95430.16
2023-03-26T20:59:09.696Z,95433.34
2023-03-26T21:01:38.865Z,95426.72
2023-03-26T21:04:06.818Z,95430.34
2023-03-26T21:06:34.437Z,95426.94
2023-03-26T21:09:02.476Z,95430.53
2023-03-26T21:11:41.192Z,95429.31
2023-03-26T21:14:16.854Z,95434.34
2023-03-26T21:16:45.020Z,95442.56
2023-03-26T21:19:13.033Z,95437.34
2023-03-26T21:24:33.341Z,95430.53
2023-03-26T21:27:08.706Z,95436.13
2023-03-26T21:29:38.228Z,95429.31
2023-03-26T21:32:06.408Z,95423.75
2023-03-26T21:34:35.089Z,95419.16
2023-03-26T21:37:04.499Z,95418.38
2023-03-26T21:39:32.425Z,95413.34
2023-03-26T21:42:04.662Z,95419.97
2023-03-26T21:44:34.196Z,95421.56
2023-03-26T21:47:03.748Z,95421.56
2023-03-26T21:49:32.018Z,95424.97
2023-03-26T21:52:00.074Z,95425.94
2023-03-26T21:54:29.548Z,95422.13
2023-03-26T21:57:13.119Z,95417.53
2023-03-26T21:59:46.545Z,95411.97
2023-03-26T22:02:24.057Z,95422.56
2023-03-26T22:04:57.376Z,95416.94
2023-03-26T22:07:31.629Z,95424.97
2023-03-26T22:09:59.174Z,95428.75
2023-03-26T22:12:26.790Z,95422.75
2023-03-26T22:14:54.333Z,95423.75
2023-03-26T22:17:23.704Z,95432.53
2023-03-26T22:19:51.319Z,95432.94
2023-03-26T22:22:18.850Z,95438.94
2023-03-26T22:24:46.343Z,95434.94
2023-03-26T22:27:15.964Z,95443.34
2023-03-26T22:29:43.542Z,95446.72
2023-03-26T22:32:11.147Z,95446.34
2023-03-26T22:34:41.383Z,95449.72
2023-03-26T22:37:08.961Z,95458.94
2023-03-26T22:39:37.777Z,95447.75
2023-03-26T22:42:05.412Z,95454.94
2023-03-26T22:44:32.999Z,95454.13
2023-03-26T22:47:01.292Z,95468.09
2023-03-26T22:49:30.304Z,95454.31
2023-03-26T22:51:59.308Z,95463.66
2023-03-26T22:54:27.258Z,95458.84
2023-03-26T22:56:55.485Z,95463.00
2023-03-26T22:59:23.103Z,95466.00
2023-03-26T23:01:50.803Z,95467.38
2023-03-26T23:04:31.361Z,95468.75
2023-03-26T23:07:01.234Z,95467.94
2023-03-26T23:09:29.401Z,95467.34
2023-03-26T23:11:57.263Z,95466.72
2023-03-26T23:14:24.899Z,95466.53
2023-03-26T23:16:52.509Z,95468.31
2023-03-26T23:19:20.090Z,95472.09
2023-03-26T23:21:47.644Z,95467.31
2023-03-26T23:24:16.839Z,95477.88
2023-03-26T23:26:50.610Z,95490.06
2023-03-26T23:29:18.919Z,95484.25
2023-03-26T23:31:46.566Z,95492.47
2023-03-26T23:34:15.196Z,95490.66
2023-03-26T23:36:44.646Z,95480.88
2023-03-26T23:39:12.190Z,95478.28
2023-03-26T23:41:41.095Z,95478.28
2023-03-26T23:44:14.531Z,95481.84
2023-03-26T23:46:42.688Z,95477.47
2023-03-26T23:49:10.312Z,95479.25
2023-03-26T23:51:37.868Z,95490.47
2023-03-26T23:54:06.622Z,95481.03
2023-03-26T23:56:34.191Z,95477.25
2023-03-26T23:59:03.564Z,95480.28
